createdAt,value
2017-10-27T00:01:04.801Z,3.43
2017-10-27T00:03:31.434Z,3.47
2017-10-27T00:05:58.070Z,4.07
2017-10-27T00:08:24.786Z,3.20
2017-10-27T00:10:51.440Z,4.13
2017-10-27T00:13:18.101Z,3.10
2017-10-27T00:15:44.841Z,3.70
2017-10-27T00:18:11.501Z,3.87
2017-10-27T00:20:38.132Z,2.63
2017-10-27T00:23:04.780Z,3.57
2017-10-27T00:25:31.417Z,3.30
2017-10-27T00:27:58.073Z,4.60
2017-10-27T00:30:24.721Z,2.70
2017-10-27T00:32:51.419Z,2.67
2017-10-27T00:35:18.081Z,2.90
2017-10-27T00:37:44.911Z,3.07
2017-10-27T00:40:11.540Z,2.83
2017-10-27T00:42:38.199Z,2.93
2017-10-27T00:45:04.849Z,4.23
2017-10-27T00:47:31.485Z,3.17
2017-10-27T00:49:58.137Z,3.13
2017-10-27T00:52:24.786Z,2.80
2017-10-27T00:54:51.470Z,3.53
2017-10-27T00:57:18.116Z,3.20
2017-10-27T00:59:44.858Z,3.50
2017-10-27T01:02:11.490Z,2.60
2017-10-27T01:04:38.160Z,2.80
2017-10-27T01:07:04.793Z,2.93
2017-10-27T01:09:31.466Z,3.13
2017-10-27T01:11:58.120Z,3.40
2017-10-27T01:14:24.859Z,3.13
2017-10-27T01:16:51.609Z,2.57
2017-10-27T01:19:18.286Z,2.63
2017-10-27T01:21:44.946Z,3.00
2017-10-27T01:24:11.612Z,2.70
2017-10-27T01:26:38.285Z,3.00
2017-10-27T01:29:04.921Z,2.70
2017-10-27T01:31:31.638Z,2.27
2017-10-27T01:33:58.269Z,2.63
2017-10-27T01:36:24.909Z,3.57
2017-10-27T01:38:51.656Z,3.23
2017-10-27T01:41:18.312Z,2.83
2017-10-27T01:43:45.081Z,2.87
2017-10-27T01:46:11.721Z,3.27
2017-10-27T01:48:38.382Z,2.37
2017-10-27T01:51:05.026Z,2.90
2017-10-27T01:53:31.684Z,2.90
2017-10-27T01:55:58.312Z,2.70
2017-10-27T01:58:24.984Z,2.10
2017-10-27T02:00:51.646Z,3.47
2017-10-27T02:03:18.309Z,3.03
2017-10-27T02:05:45.035Z,2.97
2017-10-27T02:08:11.684Z,3.10
2017-10-27T02:10:38.321Z,2.97
2017-10-27T02:13:04.961Z,2.93
2017-10-27T02:15:31.647Z,2.67
2017-10-27T02:17:58.295Z,2.50
2017-10-27T02:20:25.026Z,2.97
2017-10-27T02:22:51.726Z,2.97
2017-10-27T02:25:18.394Z,3.47
2017-10-27T02:27:45.033Z,2.77
2017-10-27T02:30:11.687Z,3.03
2017-10-27T02:32:38.317Z,2.93
2017-10-27T02:35:04.969Z,2.97
2017-10-27T02:37:31.614Z,2.60
2017-10-27T02:39:58.278Z,2.80
2017-10-27T02:42:24.941Z,2.80
2017-10-27T02:44:51.640Z,2.80
2017-10-27T02:47:18.278Z,3.67
2017-10-27T02:49:44.958Z,3.20
2017-10-27T02:52:11.682Z,3.03
2017-10-27T02:54:38.313Z,2.50
2017-10-27T02:57:04.969Z,2.73
2017-10-27T02:59:31.610Z,2.67
2017-10-27T03:01:58.281Z,2.60
2017-10-27T03:04:24.942Z,2.90
2017-10-27T03:06:51.630Z,3.13
2017-10-27T03:09:18.266Z,2.73
2017-10-27T03:11:44.917Z,3.10
2017-10-27T03:14:11.576Z,2.97
2017-10-27T03:16:38.300Z,4.03
2017-10-27T03:19:04.957Z,3.40
2017-10-27T03:21:31.614Z,2.70
2017-10-27T03:23:58.287Z,3.17
2017-10-27T03:26:24.942Z,2.87
2017-10-27T03:28:51.634Z,2.83
2017-10-27T03:31:18.264Z,3.23
2017-10-27T03:33:44.912Z,2.50
2017-10-27T03:36:11.640Z,3.27
2017-10-27T03:38:38.312Z,2.60
2017-10-27T03:41:04.944Z,2.90
2017-10-27T03:43:31.664Z,2.43
2017-10-27T03:45:58.325Z,3.67
2017-10-27T03:48:25.041Z,2.73
2017-10-27T03:50:51.717Z,2.57
2017-10-27T03:53:18.352Z,2.93
2017-10-27T03:55:45.006Z,2.70
2017-10-27T03:58:11.798Z,3.27
2017-10-27T04:00:38.453Z,2.37
2017-10-27T04:03:05.090Z,2.60
2017-10-27T04:05:31.736Z,2.70
2017-10-27T04:07:58.364Z,2.57
2017-10-27T04:10:25.037Z,4.17
2017-10-27T04:12:51.665Z,2.53
2017-10-27T04:15:18.328Z,3.80
2017-10-27T04:17:44.993Z,2.70
2017-10-27T04:20:11.737Z,2.40
2017-10-27T04:22:38.374Z,2.43
2017-10-27T04:25:05.005Z,3.63
2017-10-27T04:27:31.654Z,2.73
2017-10-27T04:29:58.288Z,2.80
2017-10-27T04:32:24.969Z,2.43
2017-10-27T04:34:51.642Z,2.67
2017-10-27T04:37:18.305Z,2.70
2017-10-27T04:39:45.040Z,2.50
2017-10-27T04:42:11.689Z,2.33
2017-10-27T04:44:38.323Z,2.50
2017-10-27T04:47:05.004Z,2.40
2017-10-27T04:49:31.641Z,2.43
2017-10-27T04:51:58.285Z,2.40
2017-10-27T04:54:24.917Z,2.40
2017-10-27T04:56:51.581Z,2.33
2017-10-27T04:59:18.213Z,2.10
2017-10-27T05:01:44.881Z,2.57
2017-10-27T05:04:11.517Z,2.67
2017-10-27T05:06:38.201Z,2.63
2017-10-27T05:09:04.850Z,2.70
2017-10-27T05:11:31.480Z,2.93
2017-10-27T05:13:58.156Z,2.77
2017-10-27T05:16:30.329Z,2.40
2017-10-27T05:19:02.592Z,1.93
2017-10-27T05:21:34.983Z,2.10
2017-10-27T05:24:07.252Z,2.43
2017-10-27T05:26:33.893Z,2.57
2017-10-27T05:29:00.545Z,2.17
2017-10-27T05:31:27.254Z,2.30
2017-10-27T05:33:53.920Z,2.37
2017-10-27T05:36:20.570Z,2.40
2017-10-27T05:38:47.221Z,3.10
2017-10-27T05:41:13.856Z,2.40
2017-10-27T05:43:40.554Z,2.03
2017-10-27T05:46:07.196Z,3.30
2017-10-27T05:48:33.824Z,2.23
2017-10-27T05:51:00.545Z,2.17
2017-10-27T05:53:27.181Z,2.00
2017-10-27T05:55:53.866Z,3.23
2017-10-27T05:58:20.604Z,2.63
2017-10-27T06:00:47.249Z,2.40
2017-10-27T06:03:13.885Z,2.50
2017-10-27T06:05:40.550Z,2.60
2017-10-27T06:08:07.180Z,2.07
2017-10-27T06:10:33.841Z,2.30
2017-10-27T06:13:00.469Z,1.83
2017-10-27T06:15:27.125Z,2.20
2017-10-27T06:17:53.853Z,2.17
2017-10-27T06:20:20.561Z,2.13
2017-10-27T06:22:47.197Z,2.43
2017-10-27T06:25:13.859Z,3.53
2017-10-27T06:27:40.612Z,2.60
2017-10-27T06:30:07.244Z,1.93
2017-10-27T06:32:33.912Z,3.50
2017-10-27T06:35:00.541Z,2.23
2017-10-27T06:37:27.201Z,5.40
2017-10-27T06:39:53.890Z,2.00
2017-10-27T06:42:20.541Z,3.07
2017-10-27T06:44:47.179Z,5.93
2017-10-27T06:47:13.920Z,12.03
2017-10-27T06:49:40.550Z,7.73
2017-10-27T06:52:07.200Z,2.37
2017-10-27T06:54:33.828Z,2.10
2017-10-27T06:57:00.472Z,4.03
2017-10-27T06:59:27.104Z,3.00
2017-10-27T07:01:53.774Z,2.37
2017-10-27T07:04:20.470Z,2.40
2017-10-27T07:06:47.108Z,2.67
2017-10-27T07:09:13.776Z,2.23
2017-10-27T07:11:40.418Z,2.43
2017-10-27T07:14:07.072Z,3.93
2017-10-27T07:16:33.705Z,4.63
2017-10-27T07:19:00.356Z,5.03
2017-10-27T07:21:26.988Z,4.67
2017-10-27T07:23:53.660Z,11.73
2017-10-27T07:26:20.305Z,11.87
2017-10-27T07:28:46.939Z,9.53
2017-10-27T07:31:13.601Z,9.23
2017-10-27T07:33:40.231Z,17.73
2017-10-27T07:36:06.905Z,5.83
2017-10-27T07:38:34.316Z,5.50
2017-10-27T07:41:01.494Z,14.90
2017-10-27T07:43:28.139Z,12.33
2017-10-27T07:45:54.798Z,14.87
2017-10-27T07:48:21.441Z,10.73
2017-10-27T07:50:48.168Z,15.27
2017-10-27T07:53:14.808Z,35.77
2017-10-27T07:55:41.476Z,14.27
2017-10-27T07:58:08.234Z,14.63
2017-10-27T08:00:34.895Z,12.63
2017-10-27T08:03:01.571Z,20.27
2017-10-27T08:05:28.273Z,15.00
2017-10-27T08:07:54.932Z,9.90
2017-10-27T08:10:21.594Z,10.80
2017-10-27T08:12:48.253Z,10.80
2017-10-27T08:15:14.884Z,18.43
2017-10-27T08:17:41.646Z,15.80
2017-10-27T08:20:08.284Z,9.30
2017-10-27T08:22:34.955Z,15.47
2017-10-27T08:25:01.600Z,13.67
2017-10-27T08:27:28.241Z,14.93
2017-10-27T08:29:54.892Z,13.90
2017-10-27T08:32:21.536Z,17.20
2017-10-27T08:34:48.184Z,16.27
2017-10-27T08:37:14.819Z,11.43
2017-10-27T08:39:41.467Z,11.13
2017-10-27T08:42:08.100Z,15.33
2017-10-27T08:44:34.802Z,12.63
2017-10-27T08:47:01.467Z,15.83
2017-10-27T08:49:28.124Z,17.20
2017-10-27T08:51:54.761Z,13.37
2017-10-27T08:54:21.433Z,16.93
2017-10-27T08:56:48.065Z,10.10
2017-10-27T08:59:14.701Z,15.07
2017-10-27T09:01:41.356Z,12.87
2017-10-27T09:04:07.988Z,15.33
2017-10-27T09:06:34.643Z,15.33
2017-10-27T09:09:01.344Z,14.73
2017-10-27T09:11:28.005Z,16.17
2017-10-27T09:13:54.641Z,14.27
2017-10-27T09:16:21.308Z,17.13
2017-10-27T09:18:47.948Z,10.60
2017-10-27T09:21:14.613Z,13.30
2017-10-27T09:23:41.257Z,11.30
2017-10-27T09:26:07.917Z,11.70
2017-10-27T09:28:34.564Z,16.57
2017-10-27T09:31:01.370Z,12.13
2017-10-27T09:33:28.009Z,12.00
2017-10-27T09:35:54.644Z,14.00
2017-10-27T09:38:21.416Z,12.53
2017-10-27T09:40:48.052Z,13.03
2017-10-27T09:43:14.706Z,15.17
2017-10-27T09:45:41.374Z,9.87
2017-10-27T09:48:08.284Z,10.10
2017-10-27T09:50:34.958Z,11.77
2017-10-27T09:53:03.178Z,13.00
2017-10-27T09:55:29.917Z,9.70
2017-10-27T09:57:56.564Z,9.50
2017-10-27T10:00:24.065Z,11.63
2017-10-27T10:02:50.716Z,11.33
2017-10-27T10:05:17.345Z,9.10
2017-10-27T10:07:44.017Z,10.87
2017-10-27T10:10:10.652Z,14.00
2017-10-27T10:12:37.293Z,14.80
2017-10-27T10:15:03.946Z,9.90
2017-10-27T10:17:30.583Z,8.57
2017-10-27T10:19:57.246Z,12.07
2017-10-27T10:22:23.879Z,8.43
2017-10-27T10:24:50.543Z,13.03
2017-10-27T10:27:17.196Z,11.90
2017-10-27T10:29:43.949Z,8.53
2017-10-27T10:32:10.580Z,9.27
2017-10-27T10:34:37.259Z,8.53
2017-10-27T10:37:03.905Z,8.47
2017-10-27T10:39:30.615Z,11.93
2017-10-27T10:41:57.248Z,8.60
2017-10-27T10:44:23.899Z,6.60
2017-10-27T10:46:50.540Z,12.10
2017-10-27T10:49:17.272Z,10.13
2017-10-27T10:51:43.913Z,10.00
2017-10-27T10:54:10.664Z,5.90
2017-10-27T10:56:37.296Z,10.93
2017-10-27T10:59:03.941Z,9.73
2017-10-27T11:01:30.588Z,8.60
2017-10-27T11:03:57.219Z,8.93
2017-10-27T11:06:23.885Z,10.20
2017-10-27T11:08:50.515Z,7.17
2017-10-27T11:11:17.160Z,8.47
2017-10-27T11:13:43.877Z,7.83
2017-10-27T11:16:10.528Z,11.83
2017-10-27T11:18:37.157Z,8.87
2017-10-27T11:21:03.809Z,7.10
2017-10-27T11:23:30.484Z,7.47
2017-10-27T11:25:57.220Z,9.00
2017-10-27T11:28:23.894Z,6.50
2017-10-27T11:30:50.531Z,7.20
2017-10-27T11:33:17.166Z,6.77
2017-10-27T11:35:43.801Z,7.57
2017-10-27T11:38:10.448Z,7.10
2017-10-27T11:40:37.083Z,11.30
2017-10-27T11:43:03.805Z,5.83
2017-10-27T11:45:30.455Z,8.83
2017-10-27T11:47:57.105Z,7.07
2017-10-27T11:50:23.735Z,6.93
2017-10-27T11:52:50.497Z,5.20
2017-10-27T11:55:17.256Z,7.03
2017-10-27T11:57:43.908Z,6.27
2017-10-27T12:00:10.541Z,7.63
2017-10-27T12:02:37.199Z,6.03
2017-10-27T12:05:03.869Z,6.53
2017-10-27T12:07:30.512Z,8.23
2017-10-27T12:09:57.139Z,8.30
2017-10-27T12:12:23.796Z,9.63
2017-10-27T12:14:50.461Z,8.53
2017-10-27T12:17:17.107Z,7.20
2017-10-27T12:19:43.860Z,7.30
2017-10-27T12:22:10.487Z,5.67
2017-10-27T12:24:37.133Z,6.57
2017-10-27T12:27:03.778Z,7.80
2017-10-27T12:29:30.462Z,6.43
2017-10-27T12:31:57.104Z,7.10
2017-10-27T12:34:23.768Z,5.80
2017-10-27T12:36:50.405Z,6.57
2017-10-27T12:39:17.077Z,7.00
2017-10-27T12:41:43.704Z,9.13
2017-10-27T12:44:10.481Z,7.93
2017-10-27T12:46:37.129Z,6.93
2017-10-27T12:49:03.767Z,7.23
2017-10-27T12:51:30.429Z,6.13
2017-10-27T12:53:57.076Z,6.80
2017-10-27T12:56:23.725Z,5.30
2017-10-27T12:58:50.369Z,5.23
2017-10-27T13:01:17.028Z,6.50
2017-10-27T13:03:43.655Z,6.93
2017-10-27T13:06:10.303Z,6.27
2017-10-27T13:08:36.940Z,7.83
2017-10-27T13:11:03.605Z,5.00
2017-10-27T13:13:30.284Z,7.90
2017-10-27T13:15:56.939Z,5.77
2017-10-27T13:18:23.576Z,6.67
2017-10-27T13:20:50.245Z,7.27
2017-10-27T13:23:16.881Z,9.03
2017-10-27T13:25:43.548Z,6.03
2017-10-27T13:28:10.178Z,5.23
2017-10-27T13:30:36.856Z,5.37
2017-10-27T13:33:03.542Z,9.03
2017-10-27T13:35:30.181Z,4.80
2017-10-27T13:37:56.828Z,7.17
2017-10-27T13:40:23.654Z,6.10
2017-10-27T13:42:50.409Z,7.07
2017-10-27T13:45:17.037Z,5.20
2017-10-27T13:47:43.684Z,5.90
2017-10-27T13:50:10.364Z,7.03
2017-10-27T13:52:37.017Z,6.00
2017-10-27T13:55:03.668Z,6.97
2017-10-27T13:57:30.324Z,5.67
2017-10-27T13:59:56.986Z,9.23
2017-10-27T14:02:23.733Z,7.10
2017-10-27T14:04:50.373Z,6.63
2017-10-27T14:07:17.003Z,6.97
2017-10-27T14:09:43.661Z,5.63
2017-10-27T14:12:10.297Z,7.97
2017-10-27T14:14:36.945Z,6.00
2017-10-27T14:17:03.598Z,5.83
2017-10-27T14:19:30.292Z,6.27
2017-10-27T14:21:56.930Z,4.73
2017-10-27T14:24:23.576Z,6.17
2017-10-27T14:26:50.218Z,6.83
2017-10-27T14:29:16.870Z,7.67
2017-10-27T14:31:43.508Z,5.10
2017-10-27T14:34:10.152Z,5.80
2017-10-27T14:36:36.857Z,8.77
2017-10-27T14:39:03.646Z,5.73
2017-10-27T14:41:30.285Z,5.07
2017-10-27T14:43:57.000Z,6.70
2017-10-27T14:46:23.633Z,5.97
2017-10-27T14:48:50.284Z,5.00
2017-10-27T14:51:16.912Z,8.67
2017-10-27T14:53:43.607Z,7.20
2017-10-27T14:56:10.262Z,4.90
2017-10-27T14:58:36.913Z,5.07
2017-10-27T15:01:03.594Z,6.57
2017-10-27T15:03:30.253Z,11.70
2017-10-27T15:05:56.909Z,7.10
2017-10-27T15:08:23.561Z,8.40
2017-10-27T15:10:50.208Z,7.77
2017-10-27T15:13:16.837Z,9.60
2017-10-27T15:15:43.487Z,9.43
2017-10-27T15:18:10.117Z,4.90
2017-10-27T15:20:36.782Z,12.93
2017-10-27T15:23:03.434Z,7.67
2017-10-27T15:25:30.065Z,9.90
2017-10-27T15:27:56.712Z,7.57
2017-10-27T15:30:23.344Z,10.90
2017-10-27T15:32:50.029Z,6.30
2017-10-27T15:35:16.656Z,5.93
2017-10-27T15:37:43.306Z,6.00
2017-10-27T15:40:09.940Z,5.97
2017-10-27T15:42:36.646Z,10.20
2017-10-27T15:45:03.408Z,10.10
2017-10-27T15:47:30.138Z,6.20
2017-10-27T15:49:56.794Z,9.63
2017-10-27T15:52:23.419Z,7.17
2017-10-27T15:54:50.078Z,6.97
2017-10-27T15:57:16.708Z,4.60
2017-10-27T15:59:43.394Z,4.90
2017-10-27T16:02:10.046Z,9.87
2017-10-27T16:04:36.692Z,6.93
2017-10-27T16:07:03.325Z,5.70
2017-10-27T16:09:30.098Z,5.73
2017-10-27T16:11:56.728Z,6.57
2017-10-27T16:14:23.385Z,8.80
2017-10-27T16:16:50.021Z,6.10
2017-10-27T16:19:16.700Z,5.40
2017-10-27T16:21:43.353Z,8.40
2017-10-27T16:24:10.102Z,6.62
2017-10-27T16:26:36.772Z,4.73
2017-10-27T16:29:03.455Z,6.63
2017-10-27T16:31:30.133Z,4.80
2017-10-27T16:33:56.765Z,14.50
2017-10-27T16:36:23.461Z,5.50
2017-10-27T16:38:50.109Z,3.73
2017-10-27T16:41:16.761Z,7.20
2017-10-27T16:43:43.389Z,4.90
2017-10-27T16:46:10.061Z,7.03
2017-10-27T16:48:36.709Z,3.40
2017-10-27T16:51:03.391Z,5.47
2017-10-27T16:53:30.032Z,7.27
2017-10-27T16:55:56.685Z,3.90
2017-10-27T16:58:23.326Z,4.90
2017-10-27T17:00:49.984Z,4.00
2017-10-27T17:03:16.725Z,3.40
2017-10-27T17:05:43.462Z,3.20
2017-10-27T17:08:10.092Z,6.07
2017-10-27T17:10:36.729Z,6.20
2017-10-27T17:13:03.430Z,4.03
2017-10-27T17:15:30.091Z,3.33
2017-10-27T17:17:56.762Z,9.40
2017-10-27T17:20:23.410Z,4.50
2017-10-27T17:22:55.110Z,6.57
2017-10-27T17:25:21.737Z,5.37
2017-10-27T17:27:48.446Z,6.00
2017-10-27T17:30:15.092Z,4.37
2017-10-27T17:32:41.850Z,4.73
2017-10-27T17:35:08.479Z,5.97
2017-10-27T17:37:35.152Z,4.73
2017-10-27T17:40:01.804Z,5.23
2017-10-27T17:42:28.472Z,3.43
2017-10-27T17:44:55.120Z,3.53
2017-10-27T17:47:21.756Z,3.03
2017-10-27T17:49:48.410Z,4.00
2017-10-27T17:52:15.076Z,3.73
2017-10-27T17:54:41.729Z,4.43
2017-10-27T17:57:08.357Z,4.00
2017-10-27T17:59:35.114Z,5.70
2017-10-27T18:02:01.753Z,7.70
2017-10-27T18:04:28.434Z,5.03
2017-10-27T18:06:55.589Z,5.97
2017-10-27T18:09:22.323Z,5.70
2017-10-27T18:11:48.956Z,7.03
2017-10-27T18:14:15.622Z,9.83
2017-10-27T18:16:42.285Z,5.83
2017-10-27T18:19:08.940Z,5.03
2017-10-27T18:21:35.592Z,6.03
2017-10-27T18:24:02.225Z,9.57
2017-10-27T18:26:28.945Z,5.90
2017-10-27T18:28:55.619Z,8.57
2017-10-27T18:31:22.285Z,4.90
2017-10-27T18:33:48.912Z,4.77
2017-10-27T18:36:15.574Z,4.47
2017-10-27T18:38:42.231Z,4.60
2017-10-27T18:41:08.888Z,3.97
2017-10-27T18:43:35.516Z,4.63
2017-10-27T18:46:02.205Z,7.10
2017-10-27T18:48:28.859Z,4.80
2017-10-27T18:50:55.700Z,4.00
2017-10-27T18:53:22.456Z,5.77
2017-10-27T18:55:49.121Z,6.03
2017-10-27T18:58:15.793Z,5.30
2017-10-27T19:00:42.500Z,3.90
2017-10-27T19:03:09.159Z,5.83
2017-10-27T19:05:35.789Z,4.60
2017-10-27T19:08:02.440Z,4.40
2017-10-27T19:10:29.080Z,2.57
2017-10-27T19:12:55.755Z,4.17
2017-10-27T19:15:22.388Z,9.67
2017-10-27T19:17:49.056Z,7.00
2017-10-27T19:20:15.683Z,5.63
2017-10-27T19:22:42.329Z,4.83
2017-10-27T19:25:08.970Z,6.07
2017-10-27T19:27:36.086Z,4.03
2017-10-27T19:30:02.934Z,2.90
2017-10-27T19:32:29.631Z,3.10
2017-10-27T19:34:56.315Z,3.60
2017-10-27T19:37:22.980Z,3.90
2017-10-27T19:39:49.633Z,4.30
2017-10-27T19:42:16.294Z,4.50
2017-10-27T19:44:43.038Z,2.57
2017-10-27T19:47:09.673Z,4.00
2017-10-27T19:49:36.558Z,5.90
2017-10-27T19:52:03.189Z,3.93
2017-10-27T19:54:30.697Z,2.57
2017-10-27T19:56:57.353Z,2.80
2017-10-27T19:59:24.030Z,3.47
2017-10-27T20:01:50.661Z,3.00
2017-10-27T20:05:22.128Z,3.70
2017-10-27T20:07:48.761Z,5.80
2017-10-27T20:10:15.501Z,2.47
2017-10-27T20:12:42.132Z,5.57
2017-10-27T20:15:08.782Z,2.90
2017-10-27T20:17:35.420Z,6.40
2017-10-27T20:20:02.073Z,3.07
2017-10-27T20:22:28.722Z,5.40
2017-10-27T20:24:55.380Z,4.43
2017-10-27T20:27:22.037Z,3.83
2017-10-27T20:29:48.668Z,2.73
2017-10-27T20:32:15.317Z,4.00
2017-10-27T20:34:41.944Z,3.50
2017-10-27T20:37:08.597Z,3.40
2017-10-27T20:39:35.237Z,3.73
2017-10-27T20:42:01.893Z,2.90
2017-10-27T20:44:28.526Z,3.57
2017-10-27T20:46:55.221Z,5.43
2017-10-27T20:49:21.860Z,3.23
2017-10-27T20:51:48.517Z,2.60
2017-10-27T20:54:15.164Z,3.07
2017-10-27T20:56:41.807Z,2.53
2017-10-27T20:59:08.460Z,3.43
2017-10-27T21:01:35.089Z,3.50
2017-10-27T21:04:01.741Z,3.50
2017-10-27T21:06:28.402Z,3.10
2017-10-27T21:08:55.155Z,4.47
2017-10-27T21:11:21.972Z,4.83
2017-10-27T21:13:48.616Z,2.70
2017-10-27T21:16:15.301Z,3.80
2017-10-27T21:18:41.953Z,3.70
2017-10-27T21:21:08.584Z,2.80
2017-10-27T21:23:35.228Z,4.90
2017-10-27T21:26:01.882Z,2.80
2017-10-27T21:28:28.552Z,2.87
2017-10-27T21:30:55.213Z,3.40
2017-10-27T21:33:21.849Z,3.63
2017-10-27T21:35:48.502Z,2.70
2017-10-27T21:38:15.145Z,2.43
2017-10-27T21:40:41.800Z,3.50
2017-10-27T21:43:08.533Z,2.43
2017-10-27T21:45:35.280Z,3.47
2017-10-27T21:48:01.908Z,2.23
2017-10-27T21:50:28.563Z,2.80
2017-10-27T21:52:55.218Z,2.83
2017-10-27T21:55:21.885Z,2.80
2017-10-27T21:57:48.525Z,2.33
2017-10-27T22:00:15.160Z,3.00
2017-10-27T22:02:41.835Z,2.67
2017-10-27T22:05:08.466Z,3.63
2017-10-27T22:07:35.140Z,4.97
2017-10-27T22:10:01.784Z,3.00
2017-10-27T22:12:28.454Z,2.10
2017-10-27T22:14:55.109Z,3.23
2017-10-27T22:17:21.760Z,4.40
2017-10-27T22:19:48.398Z,1.60
2017-10-27T22:22:15.054Z,3.00
2017-10-27T22:24:41.686Z,3.20
2017-10-27T22:27:08.339Z,2.50
2017-10-27T22:29:34.977Z,2.87
2017-10-27T22:32:01.616Z,2.00
2017-10-27T22:34:28.293Z,2.33
2017-10-27T22:36:54.948Z,3.97
2017-10-27T22:39:21.606Z,2.40
2017-10-27T22:41:48.253Z,3.10
2017-10-27T22:44:14.931Z,2.37
2017-10-27T22:46:41.658Z,1.93
2017-10-27T22:49:08.409Z,2.87
2017-10-27T22:51:35.045Z,3.13
2017-10-27T22:54:01.704Z,3.40
2017-10-27T22:56:28.363Z,3.37
2017-10-27T22:58:55.066Z,2.30
2017-10-27T23:01:21.703Z,3.10
2017-10-27T23:03:48.336Z,2.50
2017-10-27T23:06:15.010Z,2.57
2017-10-27T23:08:41.644Z,4.47
2017-10-27T23:11:08.298Z,2.20
2017-10-27T23:13:34.934Z,3.70
2017-10-27T23:16:01.580Z,3.50
2017-10-27T23:18:28.233Z,2.90
2017-10-27T23:20:54.931Z,2.37
2017-10-27T23:23:21.564Z,3.50
2017-10-27T23:25:48.211Z,2.90
2017-10-27T23:28:14.869Z,2.50
2017-10-27T23:30:41.522Z,1.77
2017-10-27T23:33:08.153Z,3.10
2017-10-27T23:35:34.800Z,2.83
2017-10-27T23:38:01.430Z,3.07
2017-10-27T23:40:28.151Z,4.17
2017-10-27T23:42:54.809Z,1.97
2017-10-27T23:45:21.457Z,3.27
2017-10-27T23:47:48.113Z,2.33
2017-10-27T23:50:14.746Z,2.63
2017-10-27T23:52:41.401Z,3.43
2017-10-27T23:55:08.048Z,2.97
2017-10-27T23:57:34.698Z,1.90
